Time;durP1;ratioP1;P1;durP2;ratioP2;P2;SDS_P1;SDS_P2;PMS_P1;PMS_P2;Temp;Humidity;BMP_temperature;BMP_pressure;BME280_temperature;BME280_humidity;BME280_pressure;Samples;Min_cycle;Max_cycle;Signal;HPM_P1;HPM_P2
2022/10/27 00:00:23;;;;;;;12.68;3.95;;;;;;;;;;4991365;28;20300;-64
2022/10/27 00:02:48;;;;;;;12.88;4.82;;;;;;;;;;4992448;28;20644;-64
2022/10/27 00:05:13;;;;;;;12.48;4.22;;;;;;;;;;4992412;28;20213;-64
2022/10/27 00:07:38;;;;;;;8.07;3.95;;;;;;;;;;4992004;28;20600;-64
2022/10/27 00:10:04;;;;;;;9.68;4.45;;;;;;;;;;4990833;28;20223;-63
2022/10/27 00:12:30;;;;;;;11.73;4.78;;;;;;;;;;5007252;28;20668;-64
2022/10/27 00:14:55;;;;;;;12.65;4.95;;;;;;;;;;4991758;28;20211;-64
2022/10/27 00:17:20;;;;;;;7.47;4.72;;;;;;;;;;4991745;28;20320;-64
2022/10/27 00:19:46;;;;;;;11.90;4.65;;;;;;;;;;4991678;28;20216;-64
2022/10/27 00:22:11;;;;;;;11.35;5.07;;;;;;;;;;4995658;28;20335;-64
2022/10/27 00:24:36;;;;;;;13.52;5.43;;;;;;;;;;4995932;28;20221;-64
2022/10/27 00:27:01;;;;;;;12.13;5.30;;;;;;;;;;4994866;28;20332;-64
2022/10/27 00:29:27;;;;;;;12.98;5.05;;;;;;;;;;4995902;28;20213;-64
2022/10/27 00:31:52;;;;;;;12.88;5.75;;;;;;;;;;4995769;28;20213;-64
2022/10/27 00:34:17;;;;;;;12.95;4.57;;;;;;;;;;4994250;28;20671;-64
2022/10/27 00:36:42;;;;;;;9.35;4.00;;;;;;;;;;4995938;28;20225;-64
2022/10/27 00:39:08;;;;;;;11.00;4.28;;;;;;;;;;4995227;28;20680;-64
2022/10/27 00:41:35;;;;;;;12.50;4.93;;;;;;;;;;4994755;28;20235;-64
2022/10/27 00:44:01;;;;;;;13.55;5.13;;;;;;;;;;4995120;28;20279;-65
2022/10/27 00:46:26;;;;;;;12.60;4.88;;;;;;;;;;5010648;28;20204;-64
2022/10/27 00:48:53;;;;;;;10.85;4.60;;;;;;;;;;4994371;28;20220;-64
2022/10/27 00:51:18;;;;;;;9.77;4.70;;;;;;;;;;4993822;28;20300;-64
2022/10/27 00:53:44;;;;;;;7.63;3.83;;;;;;;;;;4995300;28;20293;-64
2022/10/27 00:56:09;;;;;;;14.18;4.95;;;;;;;;;;4994083;28;20637;-64
2022/10/27 00:58:34;;;;;;;13.38;4.88;;;;;;;;;;4994066;28;20607;-64
2022/10/27 01:01:00;;;;;;;12.25;4.65;;;;;;;;;;4995068;28;20219;-64
2022/10/27 01:03:25;;;;;;;17.33;5.78;;;;;;;;;;4992687;28;20220;-64
2022/10/27 01:05:50;;;;;;;13.60;5.90;;;;;;;;;;4994934;28;20296;-64
2022/10/27 01:08:16;;;;;;;16.25;5.00;;;;;;;;;;4993616;28;20217;-64
2022/10/27 01:10:42;;;;;;;18.70;5.72;;;;;;;;;;4994236;28;20787;-64
2022/10/27 01:13:07;;;;;;;12.63;5.20;;;;;;;;;;4994322;28;20304;-64
2022/10/27 01:15:32;;;;;;;15.95;5.28;;;;;;;;;;4994805;28;20264;-64
2022/10/27 01:18:05;;;;;;;12.55;4.55;;;;;;;;;;4994152;28;20268;-64
2022/10/27 01:20:37;;;;;;;10.77;5.18;;;;;;;;;;4975024;28;20226;-64
2022/10/27 01:23:02;;;;;;;11.52;4.68;;;;;;;;;;4990615;28;20300;-65
2022/10/27 01:25:37;;;;;;;15.57;6.15;;;;;;;;;;4994708;28;20293;-64
2022/10/27 01:28:14;;;;;;;11.38;5.45;;;;;;;;;;5009435;28;20746;-64
2022/10/27 01:30:49;;;;;;;9.68;5.28;;;;;;;;;;5008954;28;20217;-64
2022/10/27 01:33:17;;;;;;;12.93;4.72;;;;;;;;;;5009184;28;20224;-64
2022/10/27 01:35:57;;;;;;;14.27;6.07;;;;;;;;;;5009380;28;20305;-64
2022/10/27 01:38:26;;;;;;;12.95;5.68;;;;;;;;;;4993637;28;20232;-64
2022/10/27 01:41:12;;;;;;;11.85;6.00;;;;;;;;;;4974920;28;20221;-63
2022/10/27 01:43:37;;;;;;;12.60;5.20;;;;;;;;;;4971804;28;20217;-63
2022/10/27 01:46:03;;;;;;;11.60;4.72;;;;;;;;;;4997015;28;20209;-64
2022/10/27 01:48:28;;;;;;;13.05;6.25;;;;;;;;;;4982764;28;20220;-64
2022/10/27 01:50:53;;;;;;;11.57;5.30;;;;;;;;;;4982681;28;20620;-64
2022/10/27 01:53:18;;;;;;;13.68;5.75;;;;;;;;;;4982845;28;20308;-64
2022/10/27 01:55:47;;;;;;;19.95;5.97;;;;;;;;;;4978826;28;20225;-64
2022/10/27 01:58:12;;;;;;;14.48;5.53;;;;;;;;;;4963593;28;20255;-64
2022/10/27 02:00:56;;;;;;;11.05;5.70;;;;;;;;;;4971123;28;20565;-64
2022/10/27 02:03:24;;;;;;;9.85;5.10;;;;;;;;;;4975822;28;20212;-64
2022/10/27 02:05:57;;;;;;;13.27;5.00;;;;;;;;;;4977443;28;20286;-64
2022/10/27 02:08:25;;;;;;;12.55;4.70;;;;;;;;;;4975940;28;20449;-64
2022/10/27 02:10:54;;;;;;;13.20;4.93;;;;;;;;;;4977590;28;20310;-64
2022/10/27 02:13:19;;;;;;;8.82;4.75;;;;;;;;;;4988807;28;20220;-64
2022/10/27 02:15:46;;;;;;;10.43;5.50;;;;;;;;;;4948527;28;20213;-64
2022/10/27 02:18:12;;;;;;;8.15;4.10;;;;;;;;;;4968588;28;20725;-64
2022/10/27 02:20:39;;;;;;;12.30;4.70;;;;;;;;;;4964937;28;20515;-64
2022/10/27 02:23:06;;;;;;;12.25;5.30;;;;;;;;;;4965162;28;20763;-64
2022/10/27 02:25:35;;;;;;;11.48;5.13;;;;;;;;;;4955452;28;20543;-64
2022/10/27 02:28:01;;;;;;;12.93;4.88;;;;;;;;;;4972185;28;20275;-64
2022/10/27 02:30:26;;;;;;;12.48;5.43;;;;;;;;;;4991788;28;20205;-64
2022/10/27 02:32:52;;;;;;;8.85;4.20;;;;;;;;;;4975577;28;20227;-64
2022/10/27 02:35:17;;;;;;;8.73;4.88;;;;;;;;;;4974467;28;20209;-64
2022/10/27 02:37:42;;;;;;;9.60;4.35;;;;;;;;;;4975173;28;20233;-64
2022/10/27 02:40:08;;;;;;;11.50;4.60;;;;;;;;;;4972681;28;20212;-64
2022/10/27 02:42:33;;;;;;;9.65;4.55;;;;;;;;;;4967857;28;20213;-64
2022/10/27 02:44:58;;;;;;;12.88;4.97;;;;;;;;;;4970251;28;20524;-64
2022/10/27 02:47:24;;;;;;;8.00;4.57;;;;;;;;;;4970605;28;20796;-64
2022/10/27 02:49:49;;;;;;;11.55;4.75;;;;;;;;;;4991841;28;20224;-64
2022/10/27 02:52:14;;;;;;;10.82;4.90;;;;;;;;;;4975554;28;20316;-64
2022/10/27 02:54:40;;;;;;;7.90;4.70;;;;;;;;;;4976073;28;20263;-64
2022/10/27 02:57:05;;;;;;;11.20;5.13;;;;;;;;;;4975899;28;20229;-64
2022/10/27 02:59:30;;;;;;;9.98;4.80;;;;;;;;;;4977498;28;20825;-64
2022/10/27 03:01:56;;;;;;;12.65;5.50;;;;;;;;;;4975782;28;20221;-64
2022/10/27 03:04:21;;;;;;;10.82;5.60;;;;;;;;;;4970162;28;20627;-64
2022/10/27 03:06:46;;;;;;;13.13;5.93;;;;;;;;;;4969900;28;20213;-64
2022/10/27 03:09:12;;;;;;;14.02;6.03;;;;;;;;;;4968639;28;20645;-64
2022/10/27 03:11:37;;;;;;;12.13;5.45;;;;;;;;;;4976095;28;20416;-64
2022/10/27 03:14:02;;;;;;;8.90;4.95;;;;;;;;;;4975512;28;20372;-64
2022/10/27 03:16:27;;;;;;;11.15;5.47;;;;;;;;;;4976030;28;20205;-64
2022/10/27 03:18:53;;;;;;;11.93;5.88;;;;;;;;;;4979278;28;20676;-64
2022/10/27 03:21:18;;;;;;;10.98;6.07;;;;;;;;;;4984738;28;20963;-64
2022/10/27 03:23:43;;;;;;;12.27;5.60;;;;;;;;;;4986127;28;20232;-64
2022/10/27 03:26:09;;;;;;;10.43;5.93;;;;;;;;;;4986154;28;20628;-64
2022/10/27 03:28:35;;;;;;;12.63;6.03;;;;;;;;;;4987571;28;20237;-64
2022/10/27 03:31:00;;;;;;;14.68;6.15;;;;;;;;;;4986594;28;20279;-66
2022/10/27 03:33:26;;;;;;;14.10;6.78;;;;;;;;;;4986005;28;20216;-64
2022/10/27 03:35:51;;;;;;;14.35;6.25;;;;;;;;;;4975763;28;20672;-64
2022/10/27 03:38:16;;;;;;;19.23;7.45;;;;;;;;;;4974512;28;20229;-64
2022/10/27 03:40:42;;;;;;;12.95;6.63;;;;;;;;;;4973179;28;20212;-64
2022/10/27 03:43:08;;;;;;;14.43;6.82;;;;;;;;;;4969383;28;20571;-64
2022/10/27 03:45:33;;;;;;;15.07;7.05;;;;;;;;;;4969105;28;20241;-64
2022/10/27 03:48:00;;;;;;;15.57;6.68;;;;;;;;;;4972692;28;20235;-64
2022/10/27 03:50:26;;;;;;;14.35;6.63;;;;;;;;;;4976623;28;20205;-64
2022/10/27 03:52:51;;;;;;;18.73;6.88;;;;;;;;;;4974839;28;20216;-64
2022/10/27 03:55:16;;;;;;;13.27;6.72;;;;;;;;;;4976240;28;20248;-64
2022/10/27 03:57:41;;;;;;;12.50;7.18;;;;;;;;;;4983129;28;20232;-64
2022/10/27 04:00:07;;;;;;;13.98;6.25;;;;;;;;;;4985400;28;20225;-64
2022/10/27 04:02:32;;;;;;;10.38;6.50;;;;;;;;;;4984980;28;20213;-64
2022/10/27 04:04:58;;;;;;;13.32;7.35;;;;;;;;;;4966549;28;20213;-64
2022/10/27 04:07:23;;;;;;;12.35;6.28;;;;;;;;;;4972694;28;21075;-63
2022/10/27 04:09:48;;;;;;;11.23;6.00;;;;;;;;;;4973800;28;20213;-63
2022/10/27 04:12:13;;;;;;;12.10;7.60;;;;;;;;;;4979075;28;20224;-64
2022/10/27 04:14:39;;;;;;;14.00;7.13;;;;;;;;;;4966269;28;20214;-63
2022/10/27 04:17:04;;;;;;;10.23;6.32;;;;;;;;;;4959903;28;20798;-64
2022/10/27 04:19:29;;;;;;;16.90;7.88;;;;;;;;;;4959291;28;20210;-64
2022/10/27 04:21:55;;;;;;;11.45;6.60;;;;;;;;;;4959878;28;20206;-64
2022/10/27 04:24:21;;;;;;;12.35;6.72;;;;;;;;;;4959716;28;20218;-64
2022/10/27 04:26:46;;;;;;;11.45;6.45;;;;;;;;;;4954161;28;20489;-64
2022/10/27 04:29:11;;;;;;;9.38;6.00;;;;;;;;;;4952517;28;20760;-64
2022/10/27 04:31:36;;;;;;;11.68;6.43;;;;;;;;;;4952989;28;20214;-64
2022/10/27 04:34:02;;;;;;;10.70;6.10;;;;;;;;;;4959048;28;20210;-64
2022/10/27 04:36:27;;;;;;;9.55;6.78;;;;;;;;;;4971812;28;20283;-64
2022/10/27 04:38:53;;;;;;;9.85;5.82;;;;;;;;;;5003575;28;20205;-63
2022/10/27 04:41:18;;;;;;;10.57;5.75;;;;;;;;;;4977645;28;20715;-64
2022/10/27 04:43:43;;;;;;;11.43;5.63;;;;;;;;;;4979479;28;20340;-64
2022/10/27 04:46:08;;;;;;;12.63;5.45;;;;;;;;;;4978652;28;20744;-64
2022/10/27 04:48:34;;;;;;;9.18;5.40;;;;;;;;;;4978370;28;20212;-64
2022/10/27 04:50:59;;;;;;;9.38;5.65;;;;;;;;;;4978644;28;20217;-64
2022/10/27 04:53:24;;;;;;;10.15;6.15;;;;;;;;;;4975438;28;20213;-63
2022/10/27 04:55:50;;;;;;;9.27;5.22;;;;;;;;;;4971534;28;20513;-63
2022/10/27 04:58:15;;;;;;;12.70;5.88;;;;;;;;;;4986718;28;20287;-63
2022/10/27 05:00:41;;;;;;;9.82;5.80;;;;;;;;;;4975324;28;21560;-63
2022/10/27 05:03:07;;;;;;;10.93;5.88;;;;;;;;;;4978145;28;20767;-64
2022/10/27 05:05:32;;;;;;;13.10;5.60;;;;;;;;;;4978726;28;20224;-64
2022/10/27 05:07:59;;;;;;;12.73;6.15;;;;;;;;;;4978708;28;20236;-63
2022/10/27 05:10:25;;;;;;;10.82;6.07;;;;;;;;;;4992608;28;20608;-63
2022/10/27 05:12:50;;;;;;;8.15;5.45;;;;;;;;;;4978994;28;20208;-63
2022/10/27 05:15:15;;;;;;;11.73;5.22;;;;;;;;;;4958774;28;20674;-64
2022/10/27 05:17:40;;;;;;;9.45;4.97;;;;;;;;;;4952935;28;20226;-63
2022/10/27 05:20:06;;;;;;;11.60;5.40;;;;;;;;;;4950434;28;20325;-64
2022/10/27 05:22:31;;;;;;;12.63;5.35;;;;;;;;;;4952729;28;20511;-64
2022/10/27 05:24:57;;;;;;;11.75;5.60;;;;;;;;;;4957385;28;20709;-64
2022/10/27 05:27:22;;;;;;;10.18;5.00;;;;;;;;;;4959304;28;20216;-64
2022/10/27 05:29:47;;;;;;;7.10;4.57;;;;;;;;;;4958244;28;20249;-64
2022/10/27 05:32:12;;;;;;;8.95;4.85;;;;;;;;;;4959069;28;20220;-64
2022/10/27 05:34:38;;;;;;;8.57;5.32;;;;;;;;;;4957698;28;20681;-64
2022/10/27 05:37:03;;;;;;;9.80;4.80;;;;;;;;;;4957378;28;20233;-64
2022/10/27 05:39:28;;;;;;;11.65;6.43;;;;;;;;;;4953339;28;20874;-64
2022/10/27 05:41:53;;;;;;;10.50;5.10;;;;;;;;;;4951936;28;20213;-63
2022/10/27 05:44:19;;;;;;;8.82;5.10;;;;;;;;;;4949300;28;20312;-63
2022/10/27 05:46:44;;;;;;;10.05;4.72;;;;;;;;;;4957832;28;20198;-63
2022/10/27 05:49:09;;;;;;;10.55;4.97;;;;;;;;;;4958340;28;20217;-64
2022/10/27 05:51:34;;;;;;;8.68;4.82;;;;;;;;;;4957767;28;20272;-63
2022/10/27 05:54:00;;;;;;;11.60;4.63;;;;;;;;;;4957465;28;20217;-64
2022/10/27 05:56:25;;;;;;;7.88;3.78;;;;;;;;;;4957892;28;20311;-63
2022/10/27 05:58:50;;;;;;;8.85;5.05;;;;;;;;;;4962975;28;20221;-64
2022/10/27 06:01:15;;;;;;;9.93;5.25;;;;;;;;;;4977990;28;20213;-64
2022/10/27 06:03:41;;;;;;;11.60;6.00;;;;;;;;;;4987724;28;20776;-66
2022/10/27 06:06:06;;;;;;;8.93;5.13;;;;;;;;;;4990638;28;20233;-66
2022/10/27 06:08:31;;;;;;;12.77;5.70;;;;;;;;;;5008325;28;20292;-62
2022/10/27 06:10:57;;;;;;;13.40;5.80;;;;;;;;;;4992720;28;20413;-65
2022/10/27 06:13:22;;;;;;;13.02;5.35;;;;;;;;;;4991434;28;20228;-65
2022/10/27 06:15:47;;;;;;;14.93;5.80;;;;;;;;;;4992977;28;20225;-65
2022/10/27 06:18:13;;;;;;;14.23;6.47;;;;;;;;;;4991569;28;20316;-65
2022/10/27 06:20:38;;;;;;;13.55;5.45;;;;;;;;;;5007206;28;20261;-65
2022/10/27 06:23:03;;;;;;;12.65;5.30;;;;;;;;;;4992418;28;20216;-65
2022/10/27 06:25:29;;;;;;;12.80;5.60;;;;;;;;;;4992295;28;20201;-65
2022/10/27 06:27:54;;;;;;;10.52;6.00;;;;;;;;;;4993035;28;20208;-65
2022/10/27 06:30:19;;;;;;;9.77;5.82;;;;;;;;;;4991167;28;20209;-65
2022/10/27 06:32:45;;;;;;;14.75;5.75;;;;;;;;;;4992387;28;20636;-63
2022/10/27 06:35:10;;;;;;;12.88;6.18;;;;;;;;;;4992688;28;20732;-64
2022/10/27 06:37:37;;;;;;;15.35;6.13;;;;;;;;;;4992792;28;20225;-63
2022/10/27 06:40:03;;;;;;;13.85;5.82;;;;;;;;;;4991686;28;20267;-65
2022/10/27 06:42:29;;;;;;;12.85;5.90;;;;;;;;;;4992914;28;20501;-63
2022/10/27 06:44:54;;;;;;;12.20;6.03;;;;;;;;;;4991442;28;20212;-64
2022/10/27 06:47:19;;;;;;;18.17;6.10;;;;;;;;;;4991715;28;20209;-63
2022/10/27 06:49:44;;;;;;;10.85;5.03;;;;;;;;;;4992764;28;20225;-63
2022/10/27 06:52:10;;;;;;;14.25;5.80;;;;;;;;;;4992176;28;20208;-63
2022/10/27 06:54:35;;;;;;;13.48;6.53;;;;;;;;;;4991762;28;20679;-64
2022/10/27 06:57:00;;;;;;;14.25;5.63;;;;;;;;;;4992059;28;20697;-63
2022/10/27 06:59:25;;;;;;;13.25;5.82;;;;;;;;;;4991985;28;20227;-64
2022/10/27 07:01:51;;;;;;;12.80;5.93;;;;;;;;;;4991490;28;20275;-64
2022/10/27 07:04:16;;;;;;;18.02;5.50;;;;;;;;;;4992215;28;20300;-63
2022/10/27 07:06:42;;;;;;;11.98;5.25;;;;;;;;;;4992093;28;20208;-63
2022/10/27 07:09:07;;;;;;;12.80;5.53;;;;;;;;;;4991157;28;20213;-63
2022/10/27 07:11:32;;;;;;;13.55;5.93;;;;;;;;;;5007462;28;20204;-65
2022/10/27 07:13:57;;;;;;;12.43;5.50;;;;;;;;;;4992360;28;20280;-64
2022/10/27 07:16:23;;;;;;;12.63;5.30;;;;;;;;;;5005184;28;20217;-63
2022/10/27 07:18:48;;;;;;;13.25;5.63;;;;;;;;;;4991794;28;20217;-63
2022/10/27 07:21:14;;;;;;;13.00;5.88;;;;;;;;;;5006642;28;20197;-64
2022/10/27 07:23:39;;;;;;;21.95;6.40;;;;;;;;;;4991331;28;20209;-64
2022/10/27 07:26:04;;;;;;;11.75;6.00;;;;;;;;;;4991846;28;20267;-63
2022/10/27 07:28:30;;;;;;;14.98;5.95;;;;;;;;;;4992413;28;20236;-63
2022/10/27 07:30:55;;;;;;;12.95;5.20;;;;;;;;;;4987641;28;20736;-62
2022/10/27 07:33:20;;;;;;;15.65;5.75;;;;;;;;;;4990270;28;20317;-63
2022/10/27 07:35:47;;;;;;;15.45;5.88;;;;;;;;;;4989562;28;20205;-63
2022/10/27 07:38:13;;;;;;;12.52;5.70;;;;;;;;;;5005080;28;20236;-64
2022/10/27 07:40:38;;;;;;;20.15;6.88;;;;;;;;;;4990328;28;20417;-62
2022/10/27 07:43:03;;;;;;;13.88;6.30;;;;;;;;;;4988326;28;20758;-62
2022/10/27 07:45:29;;;;;;;14.73;6.30;;;;;;;;;;4990598;28;20239;-62
2022/10/27 07:47:54;;;;;;;16.00;6.57;;;;;;;;;;4991184;28;20375;-62
2022/10/27 07:50:20;;;;;;;16.80;6.63;;;;;;;;;;4989306;28;24384;-62
2022/10/27 07:52:46;;;;;;;8.45;5.15;;;;;;;;;;4990519;28;20220;-62
2022/10/27 07:55:13;;;;;;;10.73;4.95;;;;;;;;;;4990720;28;20233;-63
2022/10/27 07:57:38;;;;;;;14.82;6.32;;;;;;;;;;4990072;28;20430;-62
2022/10/27 08:00:04;;;;;;;9.50;5.65;;;;;;;;;;4988380;28;20575;-62
2022/10/27 08:02:29;;;;;;;12.00;4.53;;;;;;;;;;4990919;28;20295;-62
2022/10/27 08:04:56;;;;;;;10.60;4.88;;;;;;;;;;4990104;28;20561;-62
2022/10/27 08:07:21;;;;;;;11.48;4.45;;;;;;;;;;4989848;28;20220;-62
2022/10/27 08:09:47;;;;;;;9.85;4.93;;;;;;;;;;4990773;28;20224;-62
2022/10/27 08:12:12;;;;;;;15.07;4.82;;;;;;;;;;4989167;28;20213;-62
2022/10/27 08:14:37;;;;;;;11.48;4.68;;;;;;;;;;4989749;28;20232;-62
2022/10/27 08:17:02;;;;;;;10.45;4.57;;;;;;;;;;5004473;28;20240;-63
2022/10/27 08:19:28;;;;;;;9.02;4.75;;;;;;;;;;4989499;28;20210;-63
2022/10/27 08:21:53;;;;;;;10.90;4.32;;;;;;;;;;4989664;28;20201;-62
2022/10/27 08:24:18;;;;;;;10.68;4.50;;;;;;;;;;4989329;28;20209;-63
2022/10/27 08:26:43;;;;;;;9.75;3.95;;;;;;;;;;4987393;28;20201;-62
2022/10/27 08:29:09;;;;;;;8.82;3.63;;;;;;;;;;4988835;28;20236;-62
2022/10/27 08:31:34;;;;;;;8.50;4.07;;;;;;;;;;4990272;28;20853;-62
2022/10/27 08:33:59;;;;;;;9.48;3.65;;;;;;;;;;4989485;28;20448;-62
2022/10/27 08:36:24;;;;;;;10.02;4.03;;;;;;;;;;4989238;28;20220;-62
2022/10/27 08:38:50;;;;;;;7.82;3.70;;;;;;;;;;4989774;28;20317;-62
2022/10/27 08:41:22;;;;;;;9.63;3.83;;;;;;;;;;4987566;28;20233;-62
2022/10/27 08:44:00;;;;;;;8.90;3.95;;;;;;;;;;4989166;28;20201;-62
2022/10/27 08:46:27;;;;;;;9.68;3.97;;;;;;;;;;4988698;28;20268;-62
2022/10/27 08:48:53;;;;;;;8.68;3.75;;;;;;;;;;5004294;28;20232;-62
2022/10/27 08:51:19;;;;;;;9.20;3.45;;;;;;;;;;4989170;28;20209;-62
2022/10/27 08:53:45;;;;;;;9.05;4.07;;;;;;;;;;4988802;28;20240;-62
2022/10/27 08:56:10;;;;;;;8.75;3.80;;;;;;;;;;4988932;28;20225;-63
2022/10/27 08:58:36;;;;;;;9.00;3.75;;;;;;;;;;4989647;28;20220;-62
2022/10/27 09:01:05;;;;;;;7.13;3.05;;;;;;;;;;5002507;28;20205;-62
2022/10/27 09:03:46;;;;;;;10.45;3.08;;;;;;;;;;5004430;28;20256;-62
2022/10/27 09:06:20;;;;;;;7.72;3.08;;;;;;;;;;4988759;28;20209;-62
2022/10/27 09:08:45;;;;;;;10.32;3.20;;;;;;;;;;4988270;28;20232;-62
2022/10/27 09:11:27;;;;;;;8.10;2.90;;;;;;;;;;4988788;28;20247;-62
2022/10/27 09:14:01;;;;;;;6.15;2.67;;;;;;;;;;4988809;28;20215;-62
2022/10/27 09:16:31;;;;;;;10.10;3.15;;;;;;;;;;5002816;28;20208;-62
2022/10/27 09:18:57;;;;;;;6.60;2.42;;;;;;;;;;5003819;28;20312;-62
2022/10/27 09:21:22;;;;;;;8.75;3.35;;;;;;;;;;5003010;28;20343;-62
2022/10/27 09:23:49;;;;;;;7.40;2.58;;;;;;;;;;5004100;28;20213;-62
2022/10/27 09:26:15;;;;;;;8.20;2.45;;;;;;;;;;5003217;28;20847;-63
2022/10/27 09:28:41;;;;;;;7.70;2.40;;;;;;;;;;4986560;28;20288;-62
2022/10/27 09:31:08;;;;;;;7.00;2.30;;;;;;;;;;5003048;28;20505;-63
2022/10/27 09:33:33;;;;;;;3.88;2.25;;;;;;;;;;5001192;28;20209;-62
2022/10/27 09:35:59;;;;;;;4.85;2.50;;;;;;;;;;5003169;28;20607;-62
2022/10/27 09:38:24;;;;;;;6.75;2.28;;;;;;;;;;4988499;28;20236;-62
2022/10/27 09:40:51;;;;;;;8.75;3.05;;;;;;;;;;5003411;28;20212;-62
2022/10/27 09:43:16;;;;;;;4.25;2.20;;;;;;;;;;4987375;28;20209;-62
2022/10/27 09:45:42;;;;;;;5.80;2.10;;;;;;;;;;5002965;28;20882;-62
2022/10/27 09:48:12;;;;;;;7.50;1.90;;;;;;;;;;5003250;28;20213;-63
2022/10/27 09:50:44;;;;;;;6.13;2.00;;;;;;;;;;5002784;28;20549;-63
2022/10/27 09:53:28;;;;;;;5.18;1.50;;;;;;;;;;5002954;28;20297;-63
2022/10/27 09:55:53;;;;;;;4.82;1.65;;;;;;;;;;4988441;28;20229;-63
2022/10/27 09:58:19;;;;;;;5.97;1.40;;;;;;;;;;4987501;28;20233;-63
2022/10/27 10:00:44;;;;;;;5.53;1.60;;;;;;;;;;5003636;28;20209;-63
2022/10/27 10:03:18;;;;;;;4.13;1.35;;;;;;;;;;4988407;28;20214;-63
2022/10/27 10:05:44;;;;;;;5.50;1.45;;;;;;;;;;4987953;28;20213;-63
2022/10/27 10:08:10;;;;;;;3.85;1.23;;;;;;;;;;5002866;28;20688;-63
2022/10/27 10:10:35;;;;;;;4.68;1.30;;;;;;;;;;5003037;28;20220;-63
2022/10/27 10:13:00;;;;;;;6.18;1.42;;;;;;;;;;5003234;28;20209;-63
2022/10/27 10:15:25;;;;;;;6.68;1.20;;;;;;;;;;4979893;28;20271;-63
2022/10/27 10:17:52;;;;;;;8.27;1.98;;;;;;;;;;4987261;28;20218;-63
2022/10/27 10:20:26;;;;;;;9.43;1.80;;;;;;;;;;4986651;28;20217;-63
2022/10/27 10:22:51;;;;;;;4.38;1.30;;;;;;;;;;5003231;28;20213;-63
2022/10/27 10:25:21;;;;;;;7.50;1.10;;;;;;;;;;4987347;28;20620;-64
2022/10/27 10:27:47;;;;;;;4.75;1.05;;;;;;;;;;4986588;28;20221;-63
2022/10/27 10:30:17;;;;;;;3.20;1.10;;;;;;;;;;4987593;28;20707;-64
2022/10/27 10:32:45;;;;;;;4.68;1.15;;;;;;;;;;5001420;28;20225;-63
2022/10/27 10:35:29;;;;;;;3.88;1.10;;;;;;;;;;5002840;28;20229;-64
2022/10/27 10:37:54;;;;;;;6.18;1.25;;;;;;;;;;4987781;28;20221;-63
2022/10/27 10:40:24;;;;;;;4.65;1.00;;;;;;;;;;5001937;28;20556;-64
2022/10/27 10:42:58;;;;;;;6.45;1.10;;;;;;;;;;4986089;28;20256;-64
2022/10/27 10:45:25;;;;;;;3.80;1.00;;;;;;;;;;4985970;28;20220;-64
2022/10/27 10:47:53;;;;;;;4.15;1.05;;;;;;;;;;4969734;28;20223;-63
2022/10/27 10:50:19;;;;;;;3.70;0.90;;;;;;;;;;5002572;28;20221;-63
2022/10/27 10:52:46;;;;;;;5.47;0.90;;;;;;;;;;5001917;28;20307;-63
2022/10/27 10:55:17;;;;;;;5.22;0.95;;;;;;;;;;5002524;28;20312;-64
2022/10/27 10:57:44;;;;;;;4.85;1.20;;;;;;;;;;4987124;28;20642;-63
2022/10/27 11:00:14;;;;;;;5.50;0.98;;;;;;;;;;5001328;28;20443;-64
2022/10/27 11:02:39;;;;;;;3.05;0.88;;;;;;;;;;5002342;28;20248;-64
2022/10/27 11:05:10;;;;;;;4.40;1.23;;;;;;;;;;5001825;28;20886;-64
2022/10/27 11:07:35;;;;;;;4.05;0.90;;;;;;;;;;4986980;28;20218;-64
2022/10/27 11:10:02;;;;;;;4.47;1.10;;;;;;;;;;5001758;28;20213;-64
2022/10/27 11:12:31;;;;;;;4.60;1.00;;;;;;;;;;5002409;28;20296;-65
2022/10/27 11:14:57;;;;;;;3.33;1.00;;;;;;;;;;5001048;28;20212;-64
2022/10/27 11:17:23;;;;;;;3.85;0.88;;;;;;;;;;5002097;28;20715;-64
2022/10/27 11:19:48;;;;;;;3.55;1.00;;;;;;;;;;4987267;28;20216;-63
2022/10/27 11:22:14;;;;;;;3.72;0.90;;;;;;;;;;5001292;28;20575;-64
2022/10/27 11:24:42;;;;;;;5.53;1.08;;;;;;;;;;5002970;28;20338;-63
2022/10/27 11:27:15;;;;;;;7.53;0.93;;;;;;;;;;5001453;28;20259;-64
2022/10/27 11:29:43;;;;;;;6.63;1.10;;;;;;;;;;5002020;28;20209;-64
2022/10/27 11:32:14;;;;;;;5.75;1.17;;;;;;;;;;4986817;28;20228;-64
2022/10/27 11:34:41;;;;;;;4.88;1.10;;;;;;;;;;4987355;28;20475;-63
2022/10/27 11:37:10;;;;;;;5.18;1.00;;;;;;;;;;5001421;28;20222;-62
2022/10/27 11:39:38;;;;;;;3.78;0.93;;;;;;;;;;5001873;28;20708;-64
2022/10/27 11:42:17;;;;;;;6.45;1.10;;;;;;;;;;4984094;28;20574;-63
2022/10/27 11:44:45;;;;;;;3.95;1.00;;;;;;;;;;5002260;28;20215;-63
2022/10/27 11:47:11;;;;;;;5.07;1.30;;;;;;;;;;4986501;28;20224;-63
2022/10/27 11:49:44;;;;;;;3.83;1.30;;;;;;;;;;4986538;28;20201;-62
2022/10/27 11:52:12;;;;;;;5.68;1.10;;;;;;;;;;5001754;28;20692;-62
2022/10/27 11:54:38;;;;;;;4.25;0.98;;;;;;;;;;4987706;28;20220;-62
2022/10/27 11:57:07;;;;;;;3.35;0.90;;;;;;;;;;4985596;28;20229;-65
2022/10/27 11:59:38;;;;;;;2.97;0.88;;;;;;;;;;5002509;28;20201;-64
2022/10/27 12:02:11;;;;;;;4.28;1.38;;;;;;;;;;5001348;28;20229;-65
2022/10/27 12:04:43;;;;;;;5.95;0.90;;;;;;;;;;5001490;28;20205;-64
2022/10/27 12:07:13;;;;;;;6.80;1.10;;;;;;;;;;5001529;28;20507;-64
2022/10/27 12:09:45;;;;;;;3.50;0.98;;;;;;;;;;5002055;28;20202;-64
2022/10/27 12:12:13;;;;;;;5.85;1.00;;;;;;;;;;4981138;28;20483;-65
2022/10/27 12:14:42;;;;;;;2.75;0.90;;;;;;;;;;4970054;28;20202;-64
2022/10/27 12:17:10;;;;;;;2.20;1.00;;;;;;;;;;5002808;28;20247;-64
2022/10/27 12:20:01;;;;;;;4.80;0.90;;;;;;;;;;5005375;28;20217;-64
2022/10/27 12:22:29;;;;;;;5.00;1.00;;;;;;;;;;4992193;28;20226;-64
2022/10/27 12:24:59;;;;;;;3.55;1.27;;;;;;;;;;5004751;28;20443;-64
2022/10/27 12:27:28;;;;;;;6.30;1.23;;;;;;;;;;4989501;28;20217;-65
2022/10/27 12:29:54;;;;;;;3.10;1.10;;;;;;;;;;5005447;28;20573;-64
2022/10/27 12:32:21;;;;;;;3.65;0.85;;;;;;;;;;5022553;28;20216;-64
2022/10/27 12:34:48;;;;;;;2.40;1.00;;;;;;;;;;5024699;28;20252;-64
2022/10/27 12:37:15;;;;;;;3.78;1.30;;;;;;;;;;5024556;28;20228;-65
2022/10/27 12:39:47;;;;;;;3.45;1.42;;;;;;;;;;4998783;28;20241;-64
2022/10/27 12:42:21;;;;;;;3.85;1.33;;;;;;;;;;4989334;28;20288;-64
2022/10/27 12:44:55;;;;;;;4.80;1.20;;;;;;;;;;4988673;28;20209;-64
2022/10/27 12:47:34;;;;;;;6.10;1.67;;;;;;;;;;4987684;28;20231;-64
2022/10/27 12:50:00;;;;;;;6.88;1.20;;;;;;;;;;4989859;28;20216;-64
2022/10/27 12:52:25;;;;;;;5.13;1.40;;;;;;;;;;4988992;28;20217;-64
2022/10/27 12:54:51;;;;;;;3.83;1.30;;;;;;;;;;5004867;28;20212;-64
2022/10/27 12:57:29;;;;;;;6.22;1.33;;;;;;;;;;4988651;28;20248;-64
2022/10/27 13:00:18;;;;;;;4.82;1.50;;;;;;;;;;4988982;28;20284;-64
2022/10/27 13:02:46;;;;;;;4.65;1.40;;;;;;;;;;4983638;28;20213;-64
2022/10/27 13:05:18;;;;;;;4.47;1.05;;;;;;;;;;4989042;28;20232;-64
2022/10/27 13:07:56;;;;;;;6.45;1.35;;;;;;;;;;4987908;28;20319;-64
2022/10/27 13:10:22;;;;;;;9.05;1.58;;;;;;;;;;4998577;28;20544;-64
2022/10/27 13:12:56;;;;;;;18.20;11.20;;;;;;;;;;5004442;28;20213;-64
2022/10/27 13:15:29;;;;;;;10.75;4.38;;;;;;;;;;5004010;28;20244;-64
2022/10/27 13:17:55;;;;;;;12.77;6.93;;;;;;;;;;5004474;28;20218;-64
2022/10/27 13:20:24;;;;;;;7.28;3.13;;;;;;;;;;4989035;28;20275;-64
2022/10/27 13:22:52;;;;;;;9.02;2.60;;;;;;;;;;4975880;28;20604;-63
2022/10/27 13:25:18;;;;;;;9.13;3.45;;;;;;;;;;5000873;28;20296;-64
2022/10/27 13:27:46;;;;;;;8.07;2.47;;;;;;;;;;5001766;28;20701;-63
2022/10/27 13:30:30;;;;;;;6.00;2.10;;;;;;;;;;5003662;28;20299;-64
2022/10/27 13:32:55;;;;;;;6.53;2.15;;;;;;;;;;4989270;28;20219;-64
2022/10/27 13:35:27;;;;;;;5.65;1.73;;;;;;;;;;4986263;28;20209;-64
2022/10/27 13:37:54;;;;;;;4.65;1.60;;;;;;;;;;4989825;28;20228;-63
2022/10/27 13:40:20;;;;;;;7.38;1.70;;;;;;;;;;4989026;28;20300;-63
2022/10/27 13:42:46;;;;;;;6.05;1.38;;;;;;;;;;4988035;28;20213;-64
2022/10/27 13:45:27;;;;;;;6.22;1.65;;;;;;;;;;4988029;28;20592;-64
2022/10/27 13:48:07;;;;;;;4.75;1.42;;;;;;;;;;4988814;28;20704;-64
2022/10/27 13:50:33;;;;;;;10.30;4.40;;;;;;;;;;4987894;28;20266;-64
2022/10/27 13:53:13;;;;;;;6.82;2.00;;;;;;;;;;4988674;28;20284;-64
2022/10/27 13:55:40;;;;;;;5.85;1.85;;;;;;;;;;4987528;28;20282;-63
2022/10/27 13:58:17;;;;;;;5.88;1.58;;;;;;;;;;4988038;28;20601;-64
2022/10/27 14:00:55;;;;;;;6.85;1.90;;;;;;;;;;4988645;28;20273;-64
2022/10/27 14:03:37;;;;;;;6.68;1.52;;;;;;;;;;4987572;28;20275;-64
2022/10/27 14:06:14;;;;;;;6.32;1.40;;;;;;;;;;4987823;28;20224;-64
2022/10/27 14:08:43;;;;;;;6.43;1.30;;;;;;;;;;4987014;28;20213;-64
2022/10/27 14:11:09;;;;;;;5.43;1.80;;;;;;;;;;4986554;28;20305;-64
2022/10/27 14:13:37;;;;;;;5.18;1.70;;;;;;;;;;4986337;28;20307;-63
2022/10/27 14:16:02;;;;;;;4.60;1.42;;;;;;;;;;4983250;28;20205;-64
2022/10/27 14:18:28;;;;;;;3.88;1.33;;;;;;;;;;5002531;28;20587;-63
2022/10/27 14:20:54;;;;;;;8.55;1.50;;;;;;;;;;4987800;28;20221;-63
2022/10/27 14:23:19;;;;;;;7.90;1.50;;;;;;;;;;4987530;28;20218;-64
2022/10/27 14:25:45;;;;;;;9.63;1.70;;;;;;;;;;4986761;28;20213;-64
2022/10/27 14:28:14;;;;;;;8.23;1.52;;;;;;;;;;4987603;28;20307;-64
2022/10/27 14:30:40;;;;;;;6.55;1.65;;;;;;;;;;5002630;28;20649;-63
2022/10/27 14:33:18;;;;;;;6.70;1.50;;;;;;;;;;4985168;28;20217;-64
2022/10/27 14:35:43;;;;;;;8.00;2.05;;;;;;;;;;5002353;28;20212;-63